Time;durP1;ratioP1;P1;durP2;ratioP2;P2;SDS_P1;SDS_P2;PMS_P1;PMS_P2;Temp;Humidity;BMP_temperature;BMP_pressure;BME280_temperature;BME280_humidity;BME280_pressure;Samples;Min_cycle;Max_cycle;Signal;HPM_P1;HPM_P2
2021/11/21 00:01:13;;;;;;;;;;;;;;;4.62;100.00;95064.06;10403159;28;19921;-74
2021/11/21 00:06:14;;;;;;;;;;;;;;;4.56;100.00;95070.28;10405240;28;20362;-72
2021/11/21 00:11:17;;;;;;;;;;;;;;;4.33;100.00;95074.47;10443641;28;19913;-73
2021/11/21 00:16:18;;;;;;;;;;;;;;;4.17;100.00;95070.59;10444258;28;20255;-76
2021/11/21 00:21:18;;;;;;;;;;;;;;;4.08;100.00;95070.06;10425104;28;20363;-73
2021/11/21 00:26:18;;;;;;;;;;;;;;;3.93;100.00;95064.34;10442199;28;19917;-74
2021/11/21 00:31:19;;;;;;;;;;;;;;;3.84;100.00;95065.69;10425360;28;19966;-74
2021/11/21 00:36:19;;;;;;;;;;;;;;;3.74;100.00;95063.53;10437656;28;19970;-73
2021/11/21 00:41:20;;;;;;;;;;;;;;;3.38;100.00;95050.00;10384568;28;19917;-74
2021/11/21 00:46:20;;;;;;;;;;;;;;;3.42;100.00;95050.41;10400440;28;19972;-75
2021/11/21 00:51:20;;;;;;;;;;;;;;;3.36;100.00;95045.94;10384014;28;19917;-76
2021/11/21 00:56:21;;;;;;;;;;;;;;;3.38;100.00;95049.22;10401681;28;19920;-73
2021/11/21 01:01:21;;;;;;;;;;;;;;;3.33;100.00;95041.88;10383541;28;19928;-72
2021/11/21 01:06:22;;;;;;;;;;;;;;;3.25;100.00;95043.00;10399894;28;19925;-73
2021/11/21 01:11:22;;;;;;;;;;;;;;;3.31;100.00;95030.69;10401112;28;19924;-74
2021/11/21 01:16:22;;;;;;;;;;;;;;;3.33;100.00;95031.25;10385739;28;19919;-73
2021/11/21 01:21:23;;;;;;;;;;;;;;;3.39;100.00;95021.59;10407942;28;20523;-73
2021/11/21 01:26:23;;;;;;;;;;;;;;;3.22;100.00;95022.19;10407306;28;20299;-73
2021/11/21 01:31:25;;;;;;;;;;;;;;;3.22;100.00;95011.56;10409171;28;19913;-76
2021/11/21 01:36:26;;;;;;;;;;;;;;;3.18;100.00;95005.06;10391149;28;19917;-74
2021/11/21 01:41:26;;;;;;;;;;;;;;;3.05;100.00;95003.34;10407547;28;19928;-75
2021/11/21 01:46:30;;;;;;;;;;;;;;;3.15;100.00;95002.03;10391953;28;19967;-75
2021/11/21 01:51:31;;;;;;;;;;;;;;;3.10;100.00;94988.59;10406697;28;20434;-72
2021/11/21 01:56:31;;;;;;;;;;;;;;;3.01;100.00;94990.72;10417680;28;19942;-72
2021/11/21 02:01:31;;;;;;;;;;;;;;;2.95;100.00;94984.44;10430996;28;19928;-73
2021/11/21 02:06:33;;;;;;;;;;;;;;;2.83;100.00;94976.41;10448061;28;19929;-73
2021/11/21 02:11:34;;;;;;;;;;;;;;;2.98;100.00;94977.91;10447044;28;19917;-73
2021/11/21 02:16:34;;;;;;;;;;;;;;;2.83;100.00;94973.75;10430631;28;19978;-75
2021/11/21 02:21:34;;;;;;;;;;;;;;;2.83;100.00;94978.22;10430980;28;20032;-74
2021/11/21 02:26:35;;;;;;;;;;;;;;;2.79;100.00;94974.38;10447506;28;19927;-73
2021/11/21 02:31:36;;;;;;;;;;;;;;;2.73;100.00;94981.38;10430490;28;19912;-73
2021/11/21 02:36:41;;;;;;;;;;;;;;;2.62;100.00;94968.81;10448135;28;19939;-73
2021/11/21 02:41:41;;;;;;;;;;;;;;;2.51;100.00;94973.00;10445741;28;20359;-78
2021/11/21 02:46:41;;;;;;;;;;;;;;;2.37;100.00;94964.31;10429691;28;19924;-74
2021/11/21 02:51:42;;;;;;;;;;;;;;;2.17;100.00;94965.28;10445852;28;19992;-77
2021/11/21 02:56:42;;;;;;;;;;;;;;;2.08;100.00;94965.75;10447155;28;20007;-74
2021/11/21 03:01:43;;;;;;;;;;;;;;;1.94;100.00;94971.16;10428728;28;19921;-74
2021/11/21 03:06:43;;;;;;;;;;;;;;;1.97;100.00;94969.94;10411455;28;19924;-74
2021/11/21 03:11:43;;;;;;;;;;;;;;;1.99;100.00;94957.25;10428718;28;19924;-73
2021/11/21 03:16:45;;;;;;;;;;;;;;;2.11;100.00;94955.53;10427446;28;19919;-74
2021/11/21 03:21:45;;;;;;;;;;;;;;;2.07;100.00;94959.66;10428305;28;19912;-77
2021/11/21 03:26:45;;;;;;;;;;;;;;;2.08;100.00;94963.09;10443092;28;19928;-74
2021/11/21 03:31:45;;;;;;;;;;;;;;;2.16;100.00;94963.69;10386452;28;19943;-74
2021/11/21 03:36:46;;;;;;;;;;;;;;;2.12;100.00;94969.59;10403111;28;19920;-75
2021/11/21 03:41:46;;;;;;;;;;;;;;;2.04;100.00;94958.22;10403916;28;19947;-78
2021/11/21 03:46:46;;;;;;;;;;;;;;;2.01;100.00;94956.03;10404863;28;19923;-78
2021/11/21 03:51:47;;;;;;;;;;;;;;;2.02;100.00;94960.31;10403744;28;19920;-75
2021/11/21 03:56:47;;;;;;;;;;;;;;;2.04;100.00;94958.22;10402441;28;20283;-79
2021/11/21 04:01:48;;;;;;;;;;;;;;;2.07;100.00;94961.50;10403333;28;19928;-77
2021/11/21 04:06:50;;;;;;;;;;;;;;;1.96;100.00;94963.00;10401881;28;19952;-76
2021/11/21 04:11:50;;;;;;;;;;;;;;;1.79;100.00;94968.78;10385732;28;19917;-75
2021/11/21 04:16:51;;;;;;;;;;;;;;;1.73;100.00;94974.94;10400953;28;19913;-74
2021/11/21 04:21:51;;;;;;;;;;;;;;;1.59;100.00;94965.41;10401781;28;19913;-76
2021/11/21 04:26:51;;;;;;;;;;;;;;;1.44;100.00;94968.31;10401817;28;19964;-75
2021/11/21 04:31:53;;;;;;;;;;;;;;;1.47;100.00;94966.09;10400824;28;20079;-75
2021/11/21 04:36:55;;;;;;;;;;;;;;;1.49;100.00;94968.50;10401380;28;19913;-74
2021/11/21 04:41:56;;;;;;;;;;;;;;;1.43;100.00;94972.81;10385010;28;20310;-74
2021/11/21 04:46:56;;;;;;;;;;;;;;;1.32;100.00;94968.97;10401050;28;19917;-78
2021/11/21 04:51:57;;;;;;;;;;;;;;;1.36;100.00;94975.50;10401413;28;20280;-74
2021/11/21 04:56:58;;;;;;;;;;;;;;;1.31;100.00;94964.72;10401949;28;19917;-79
2021/11/21 05:01:58;;;;;;;;;;;;;;;1.36;100.00;94964.09;10399821;28;19921;-73
2021/11/21 05:06:59;;;;;;;;;;;;;;;1.29;100.00;94969.41;10402373;28;19931;-75
2021/11/21 05:11:59;;;;;;;;;;;;;;;1.36;100.00;94964.09;10401177;28;19925;-77
2021/11/21 05:17:00;;;;;;;;;;;;;;;1.36;100.00;94959.59;10401917;28;19913;-75
2021/11/21 05:22:00;;;;;;;;;;;;;;;1.41;100.00;94960.81;10401037;28;20272;-74
2021/11/21 05:27:01;;;;;;;;;;;;;;;1.40;100.00;94962.66;10383669;28;19917;-76
2021/11/21 05:32:02;;;;;;;;;;;;;;;1.40;100.00;94954.72;10399018;28;20008;-74
2021/11/21 05:37:03;;;;;;;;;;;;;;;1.55;100.00;94959.75;10401830;28;20023;-76
2021/11/21 05:42:03;;;;;;;;;;;;;;;1.63;100.00;94956.03;10400877;28;19921;-77
2021/11/21 05:47:04;;;;;;;;;;;;;;;1.62;100.00;94952.56;10383471;28;19925;-75
2021/11/21 05:52:04;;;;;;;;;;;;;;;1.60;100.00;94956.44;10401149;28;19920;-76
2021/11/21 05:57:05;;;;;;;;;;;;;;;1.64;100.00;94953.16;10384477;28;19956;-76
2021/11/21 06:02:06;;;;;;;;;;;;;;;1.91;100.00;94957.50;10384726;28;19925;-76
2021/11/21 06:07:08;;;;;;;;;;;;;;;1.94;100.00;94962.38;10406668;28;20406;-76
2021/11/21 06:12:09;;;;;;;;;;;;;;;1.98;100.00;94972.34;10407356;28;19913;-76
2021/11/21 06:17:09;;;;;;;;;;;;;;;2.06;100.00;94973.91;10390002;28;19913;-77
2021/11/21 06:22:09;;;;;;;;;;;;;;;2.08;100.00;94963.94;10390246;28;20364;-76
2021/11/21 06:27:10;;;;;;;;;;;;;;;2.00;100.00;94958.88;10389631;28;19924;-74
2021/11/21 06:32:11;;;;;;;;;;;;;;;2.04;100.00;94965.38;10390653;28;20393;-78
2021/11/21 06:37:11;;;;;;;;;;;;;;;2.22;100.00;94951.41;10388917;28;19982;-75
2021/11/21 06:42:12;;;;;;;;;;;;;;;2.56;100.00;94954.59;10407037;28;19974;-73
2021/11/21 06:47:15;;;;;;;;;;;;;;;2.87;100.00;94950.22;10424632;28;19917;-75
2021/11/21 06:52:18;;;;;;;;;;;;;;;3.16;100.00;94947.88;10429527;28;20390;-75
2021/11/21 06:57:19;;;;;;;;;;;;;;;3.40;100.00;94943.53;10445956;28;19972;-76
2021/11/21 07:02:20;;;;;;;;;;;;;;;3.61;100.00;94941.44;10428813;28;19921;-78
2021/11/21 07:07:21;;;;;;;;;;;;;;;3.90;100.00;94923.88;10447119;28;19927;-79
2021/11/21 07:12:21;;;;;;;;;;;;;;;4.14;100.00;94930.06;10428176;28;19917;-76
2021/11/21 07:17:22;;;;;;;;;;;;;;;4.24;100.00;94916.19;10427692;28;20398;-77
2021/11/21 07:22:22;;;;;;;;;;;;;;;4.41;100.00;94924.31;10428375;28;19959;-75
2021/11/21 07:27:22;;;;;;;;;;;;;;;4.56;100.00;94916.72;10428161;28;20382;-76
2021/11/21 07:32:22;;;;;;;;;;;;;;;4.67;100.00;94909.75;10427735;28;20448;-79
2021/11/21 07:37:23;;;;;;;;;;;;;;;4.84;100.00;94912.53;10428591;28;19917;-76
2021/11/21 07:42:23;;;;;;;;;;;;;;;5.01;100.00;94909.16;10428626;28;19916;-80
2021/11/21 07:47:23;;;;;;;;;;;;;;;5.05;100.00;94905.81;10426193;28;19943;-76
2021/11/21 07:52:25;;;;;;;;;;;;;;;5.12;100.00;94911.81;10426391;28;19925;-75
2021/11/21 07:57:25;;;;;;;;;;;;;;;5.25;100.00;94908.09;10426233;28;19913;-80
2021/11/21 08:02:25;;;;;;;;;;;;;;;5.35;100.00;94909.34;10442987;28;19921;-80
2021/11/21 08:07:26;;;;;;;;;;;;;;;5.43;100.00;94901.78;10426611;28;19921;-75
2021/11/21 08:12:26;;;;;;;;;;;;;;;5.63;100.00;94912.03;10426350;28;19996;-76
2021/11/21 08:17:27;;;;;;;;;;;;;;;5.79;100.00;94897.13;10426492;28;19913;-75
2021/11/21 08:22:27;;;;;;;;;;;;;;;5.89;100.00;94901.84;10442935;28;19917;-74
2021/11/21 08:27:27;;;;;;;;;;;;;;;5.99;100.00;94904.72;10441807;28;19920;-79
2021/11/21 08:32:28;;;;;;;;;;;;;;;6.11;100.00;94909.19;10432326;28;19913;-75
2021/11/21 08:37:28;;;;;;;;;;;;;;;6.40;100.00;94895.78;10429862;28;19917;-76
2021/11/21 08:42:28;;;;;;;;;;;;;;;6.40;100.00;94895.78;10431192;28;19913;-74
2021/11/21 08:47:29;;;;;;;;;;;;;;;6.65;100.00;94890.81;10446680;28;20005;-75
2021/11/21 08:52:29;;;;;;;;;;;;;;;6.84;100.00;94885.22;10425099;28;19920;-78
2021/11/21 08:57:29;;;;;;;;;;;;;;;6.97;100.00;94874.19;10441829;28;19947;-75
2021/11/21 09:07:40;;;;;;;;;;;;;;;7.48;100.00;94855.28;10359745;28;19936;-75
2021/11/21 09:12:41;;;;;;;;;;;;;;;7.66;100.00;94851.47;10344397;28;20350;-76
2021/11/21 09:17:43;;;;;;;;;;;;;;;7.92;100.00;94846.38;10362278;28;19913;-75
2021/11/21 09:22:43;;;;;;;;;;;;;;;7.85;100.00;94835.88;10342789;28;19918;-74
2021/11/21 09:27:43;;;;;;;;;;;;;;;8.40;100.00;94830.47;10344135;28;19924;-75
2021/11/21 09:32:44;;;;;;;;;;;;;;;8.93;100.00;94825.19;10361609;28;19914;-76
2021/11/21 09:37:44;;;;;;;;;;;;;;;8.71;100.00;94811.94;10363258;28;19921;-79
2021/11/21 09:42:46;;;;;;;;;;;;;;;10.11;100.00;94797.84;10349956;28;19921;-76
2021/11/21 09:47:51;;;;;;;;;;;;;;;10.21;100.00;94792.50;10349919;28;20303;-75
2021/11/21 09:52:52;;;;;;;;;;;;;;;11.79;100.00;94773.41;10350021;28;20426;-79
2021/11/21 09:57:54;;;;;;;;;;;;;;;13.85;77.75;94763.19;10368333;28;20004;-81
2021/11/21 10:03:05;;;;;;;;;;;;;;;16.28;60.15;94759.34;10349543;28;20372;-76
2021/11/21 10:08:05;;;;;;;;;;;;;;;19.22;46.68;94737.84;10366927;28;19921;-75
2021/11/21 10:13:26;;;;;;;;;;;;;;;20.62;41.57;94727.81;10365440;28;20382;-75
2021/11/21 10:18:26;;;;;;;;;;;;;;;21.79;39.30;94712.06;10348519;28;19914;-75
2021/11/21 10:23:27;;;;;;;;;;;;;;;21.82;38.84;94692.22;10364913;28;19913;-76
2021/11/21 10:28:34;;;;;;;;;;;;;;;21.13;39.66;94692.06;10364950;28;19961;-82
2021/11/21 10:33:41;;;;;;;;;;;;;;;23.55;35.06;94677.53;10348664;28;19920;-75
2021/11/21 10:38:46;;;;;;;;;;;;;;;24.40;34.09;94666.75;10348277;28;20004;-79
2021/11/21 10:43:48;;;;;;;;;;;;;;;25.72;31.67;94655.59;10365702;28;19917;-77
2021/11/21 10:48:48;;;;;;;;;;;;;;;25.96;31.23;94644.50;10364349;28;20407;-74
2021/11/21 10:53:51;;;;;;;;;;;;;;;25.11;31.61;94637.38;10363135;28;19921;-81
2021/11/21 10:58:51;;;;;;;;;;;;;;;25.82;30.60;94631.34;10347153;28;20415;-79
2021/11/21 11:04:08;;;;;;;;;;;;;;;25.61;31.05;94621.63;10363641;28;19925;-75
2021/11/21 11:09:15;;;;;;;;;;;;;;;25.24;31.35;94614.00;10362720;28;19914;-75
2021/11/21 11:14:19;;;;;;;;;;;;;;;24.91;31.54;94605.25;10363379;28;19917;-80
2021/11/21 11:19:20;;;;;;;;;;;;;;;23.86;32.88;94602.56;10362473;28;19914;-74
2021/11/21 11:24:22;;;;;;;;;;;;;;;23.45;33.89;94599.34;10363212;28;19924;-75
2021/11/21 11:29:26;;;;;;;;;;;;;;;21.99;35.95;94579.78;10363810;28;20055;-76
2021/11/21 11:34:33;;;;;;;;;;;;;;;23.29;33.69;94577.47;10362433;28;19920;-79
2021/11/21 11:39:44;;;;;;;;;;;;;;;21.25;36.61;94577.28;10361959;28;19924;-76
2021/11/21 11:44:52;;;;;;;;;;;;;;;19.23;39.79;94562.34;10361851;28;19932;-76
2021/11/21 11:49:53;;;;;;;;;;;;;;;16.15;45.85;94556.88;10362435;28;19913;-75
2021/11/21 11:55:13;;;;;;;;;;;;;;;15.27;51.42;94547.44;10363828;28;20155;-75
2021/11/21 12:00:23;;;;;;;;;;;;;;;14.02;57.32;94545.69;10360624;28;19917;-74
2021/11/21 12:05:31;;;;;;;;;;;;;;;13.48;65.24;94542.63;10361247;28;19984;-80
2021/11/21 12:10:42;;;;;;;;;;;;;;;13.01;70.58;94542.50;10360969;28;19972;-76
2021/11/21 12:15:51;;;;;;;;;;;;;;;12.59;74.03;94542.28;10360392;28;19914;-75
2021/11/21 12:20:51;;;;;;;;;;;;;;;12.35;77.50;94533.44;10361513;28;19924;-76
2021/11/21 12:25:51;;;;;;;;;;;;;;;12.15;79.59;94535.28;10359803;28;19918;-77
2021/11/21 12:30:52;;;;;;;;;;;;;;;12.04;81.12;94521.16;10360126;28;19913;-77
2021/11/21 12:35:53;;;;;;;;;;;;;;;12.06;83.06;94515.50;10359364;28;19913;-75
2021/11/21 12:40:54;;;;;;;;;;;;;;;12.11;81.76;94508.16;10359312;28;19913;-77
2021/11/21 12:45:59;;;;;;;;;;;;;;;11.80;85.55;94511.16;10360051;28;19961;-76
2021/11/21 12:51:01;;;;;;;;;;;;;;;11.78;88.00;94513.31;10359080;28;19914;-72
2021/11/21 12:56:17;;;;;;;;;;;;;;;11.62;88.83;94511.88;10359763;28;20247;-77
2021/11/21 13:01:17;;;;;;;;;;;;;;;11.59;89.37;94510.56;10360367;28;19920;-77
2021/11/21 13:06:19;;;;;;;;;;;;;;;11.54;92.75;94507.94;10358781;28;20351;-73
2021/11/21 13:11:20;;;;;;;;;;;;;;;11.43;94.36;94501.84;10359491;28;20311;-74
2021/11/21 13:16:22;;;;;;;;;;;;;;;11.25;96.75;94494.50;10370358;28;19924;-77
2021/11/21 13:21:29;;;;;;;;;;;;;;;11.21;98.04;94496.94;10368522;28;19913;-76
2021/11/21 13:26:30;;;;;;;;;;;;;;;11.20;97.67;94492.63;10366003;28;19967;-75
2021/11/21 13:31:32;;;;;;;;;;;;;;;11.02;100.00;94488.75;10368326;28;20500;-72
2021/11/21 13:36:32;;;;;;;;;;;;;;;10.98;99.95;94493.09;10351692;28;19913;-78
2021/11/21 13:41:33;;;;;;;;;;;;;;;10.97;100.00;94486.13;10367142;28;20407;-73
2021/11/21 13:46:35;;;;;;;;;;;;;;;10.90;100.00;94480.25;10365688;28;19929;-75
2021/11/21 13:51:35;;;;;;;;;;;;;;;10.75;100.00;94473.09;10363671;28;20310;-78
2021/11/21 13:56:43;;;;;;;;;;;;;;;10.74;100.00;94482.25;10365794;28;19914;-78
2021/11/21 14:01:45;;;;;;;;;;;;;;;10.65;100.00;94468.63;10343386;28;20308;-75
2021/11/21 14:06:46;;;;;;;;;;;;;;;10.54;100.00;94464.41;10345912;28;20016;-75
2021/11/21 14:11:46;;;;;;;;;;;;;;;10.50;100.00;94468.72;10347136;28;20494;-74
2021/11/21 14:16:48;;;;;;;;;;;;;;;10.29;100.00;94466.13;10364513;28;19913;-74
2021/11/21 14:22:01;;;;;;;;;;;;;;;10.16;100.00;94472.09;10347268;28;20382;-75
2021/11/21 14:27:08;;;;;;;;;;;;;;;10.13;100.00;94478.03;10347377;28;19918;-73
2021/11/21 14:32:13;;;;;;;;;;;;;;;10.00;100.00;94464.13;10330610;28;19925;-74
2021/11/21 14:37:14;;;;;;;;;;;;;;;9.90;100.00;94461.50;10330466;28;19960;-74
2021/11/21 14:42:15;;;;;;;;;;;;;;;9.62;100.00;94471.00;10346124;28;19917;-79
2021/11/21 14:47:17;;;;;;;;;;;;;;;9.49;100.00;94470.50;10346540;28;20016;-75
2021/11/21 14:52:18;;;;;;;;;;;;;;;9.26;100.00;94465.72;10347747;28;20354;-79
2021/11/21 14:57:24;;;;;;;;;;;;;;;9.09;100.00;94466.81;10330271;28;19999;-76
2021/11/21 15:02:24;;;;;;;;;;;;;;;8.93;100.00;94471.41;10362170;28;19922;-74
2021/11/21 15:07:24;;;;;;;;;;;;;;;8.63;100.00;94475.66;10344312;28;20425;-75
2021/11/21 15:12:25;;;;;;;;;;;;;;;8.54;100.00;94472.72;10345596;28;20265;-75
2021/11/21 15:17:25;;;;;;;;;;;;;;;8.45;100.00;94473.50;10346785;28;20375;-77
2021/11/21 15:22:25;;;;;;;;;;;;;;;8.21;100.00;94473.97;10345264;28;20501;-76
2021/11/21 15:27:26;;;;;;;;;;;;;;;8.03;100.00;94475.25;10361722;28;19960;-75
2021/11/21 15:32:29;;;;;;;;;;;;;;;7.82;100.00;94480.53;10347858;28;19921;-79
2021/11/21 15:37:31;;;;;;;;;;;;;;;7.74;100.00;94469.53;10362660;28;19930;-77
2021/11/21 15:42:33;;;;;;;;;;;;;;;7.55;100.00;94480.72;10344687;28;19921;-78
2021/11/21 15:47:33;;;;;;;;;;;;;;;7.44;100.00;94484.41;10345509;28;20376;-74
2021/11/21 15:52:35;;;;;;;;;;;;;;;7.32;100.00;94482.69;10346541;28;19917;-74
2021/11/21 15:57:37;;;;;;;;;;;;;;;7.19;100.00;94478.63;10347156;28;19921;-77
2021/11/21 16:02:37;;;;;;;;;;;;;;;7.13;100.00;94478.84;10345972;28;19918;-78
2021/11/21 16:07:39;;;;;;;;;;;;;;;6.98;100.00;94488.38;10350683;28;20347;-78
2021/11/21 16:12:40;;;;;;;;;;;;;;;6.92;100.00;94480.56;10344481;28;20388;-76
2021/11/21 16:17:40;;;;;;;;;;;;;;;6.79;100.00;94490.63;10344686;28;19913;-75
2021/11/21 16:22:41;;;;;;;;;;;;;;;6.76;100.00;94493.03;10343131;28;19921;-73
2021/11/21 16:27:42;;;;;;;;;;;;;;;6.70;100.00;94489.50;10361332;28;19975;-77
2021/11/21 16:32:43;;;;;;;;;;;;;;;6.58;100.00;94491.53;10360022;28;19914;-76
2021/11/21 16:37:43;;;;;;;;;;;;;;;6.66;100.00;94483.06;10343838;28;20398;-75
2021/11/21 16:42:43;;;;;;;;;;;;;;;6.60;100.00;94495.56;10342527;28;19921;-76
2021/11/21 16:47:44;;;;;;;;;;;;;;;6.54;100.00;94491.22;10343605;28;19924;-76
2021/11/21 16:52:45;;;;;;;;;;;;;;;6.54;100.00;94491.22;10343883;28;19924;-75
2021/11/21 16:57:45;;;;;;;;;;;;;;;6.50;100.00;94498.13;10342204;28;19925;-79
2021/11/21 17:02:45;;;;;;;;;;;;;;;6.38;100.00;94503.63;10361062;28;19927;-79
2021/11/21 17:07:46;;;;;;;;;;;;;;;6.23;100.00;94496.28;10363200;28;19941;-78
2021/11/21 17:12:47;;;;;;;;;;;;;;;6.13;100.00;94494.31;10328224;28;19917;-75
2021/11/21 17:17:49;;;;;;;;;;;;;;;5.99;100.00;94499.22;10327571;28;19921;-78
2021/11/21 17:22:50;;;;;;;;;;;;;;;5.98;100.00;94502.94;10342674;28;19913;-74
2021/11/21 17:27:51;;;;;;;;;;;;;;;5.93;100.00;94502.88;10358800;28;20369;-78
2021/11/21 17:32:52;;;;;;;;;;;;;;;5.88;100.00;94504.69;10360008;28;19914;-76
2021/11/21 17:37:52;;;;;;;;;;;;;;;5.80;100.00;94498.72;10363609;28;19924;-79
2021/11/21 17:42:52;;;;;;;;;;;;;;;5.72;100.00;94507.16;10381350;28;20421;-72
2021/11/21 17:47:53;;;;;;;;;;;;;;;5.72;100.00;94501.00;10397410;28;19917;-73
2021/11/21 17:52:53;;;;;;;;;;;;;;;5.67;100.00;94514.28;10370865;28;19913;-74
2021/11/21 17:57:53;;;;;;;;;;;;;;;5.54;100.00;94510.09;10341997;28;19922;-75
2021/11/21 18:02:53;;;;;;;;;;;;;;;5.50;100.00;94501.00;10365277;28;20056;-74
2021/11/21 18:07:54;;;;;;;;;;;;;;;5.48;100.00;94503.91;10348644;28;19928;-72
2021/11/21 18:12:58;;;;;;;;;;;;;;;5.38;100.00;94506.44;10365571;28;20295;-74
2021/11/21 18:17:58;;;;;;;;;;;;;;;5.31;100.00;94509.28;10364479;28;19913;-77
2021/11/21 18:22:58;;;;;;;;;;;;;;;5.36;100.00;94506.69;10348967;28;20410;-74
2021/11/21 18:28:04;;;;;;;;;;;;;;;5.35;100.00;94506.94;10347852;28;19925;-79
2021/11/21 18:33:05;;;;;;;;;;;;;;;5.26;100.00;94504.69;10349525;28;19914;-75
2021/11/21 18:38:05;;;;;;;;;;;;;;;5.12;100.00;94517.56;10350035;28;20426;-79
2021/11/21 18:43:06;;;;;;;;;;;;;;;5.02;100.00;94511.25;10365988;28;20307;-76
2021/11/21 18:48:06;;;;;;;;;;;;;;;4.97;100.00;94520.00;10331255;28;19917;-75
2021/11/21 18:53:07;;;;;;;;;;;;;;;5.06;100.00;94515.84;10347665;28;20392;-75
2021/11/21 18:58:10;;;;;;;;;;;;;;;5.09;100.00;94501.25;10346605;28;20382;-72
2021/11/21 19:03:10;;;;;;;;;;;;;;;5.11;100.00;94513.28;10471381;23;19946;-74
2021/11/21 19:08:10;;;;;;;;;;;;;;;5.16;100.00;94509.88;10405106;28;19925;-75
2021/11/21 19:13:11;;;;;;;;;;;;;;;5.18;100.00;94510.44;10403282;28;19917;-74
2021/11/21 19:18:12;;;;;;;;;;;;;;;4.93;100.00;94513.53;10406268;28;19913;-79
2021/11/21 19:23:13;;;;;;;;;;;;;;;4.81;100.00;94518.94;10404191;28;19917;-76
2021/11/21 19:28:14;;;;;;;;;;;;;;;4.74;100.00;94521.75;10403870;28;19917;-75
2021/11/21 19:33:14;;;;;;;;;;;;;;;4.80;100.00;94520.00;10404143;28;20030;-73
2021/11/21 19:38:14;;;;;;;;;;;;;;;4.72;100.00;94523.84;10402896;28;19955;-76
2021/11/21 19:43:15;;;;;;;;;;;;;;;4.54;100.00;94527.53;10402487;28;19952;-74
2021/11/21 19:48:16;;;;;;;;;;;;;;;4.46;100.00;94525.28;10401946;28;20004;-75
2021/11/21 19:53:16;;;;;;;;;;;;;;;4.34;100.00;94527.19;10404142;28;20004;-74
2021/11/21 19:58:16;;;;;;;;;;;;;;;4.18;100.00;94524.25;10419157;28;19971;-76
2021/11/21 20:03:17;;;;;;;;;;;;;;;4.11;100.00;94529.72;10418283;28;19929;-76
2021/11/21 20:08:17;;;;;;;;;;;;;;;3.82;100.00;94531.53;10419661;28;19921;-77
2021/11/21 20:13:17;;;;;;;;;;;;;;;3.98;100.00;94521.19;10402532;28;19917;-76
2021/11/21 20:18:20;;;;;;;;;;;;;;;3.94;100.00;94537.63;10401242;28;20329;-75
2021/11/21 20:23:20;;;;;;;;;;;;;;;3.97;100.00;94530.25;10401760;28;19913;-74
2021/11/21 20:28:20;;;;;;;;;;;;;;;3.91;100.00;94527.47;10401689;28;19928;-75
2021/11/21 20:38:39;;;;;;;;;;;;;;;3.74;100.00;94532.75;10402425;28;19914;-73
2021/11/21 20:43:40;;;;;;;;;;;;;;;3.75;100.00;94528.22;10402154;28;20481;-76
2021/11/21 20:48:40;;;;;;;;;;;;;;;3.49;100.00;94530.38;10399387;28;19917;-75
2021/11/21 20:53:40;;;;;;;;;;;;;;;3.46;100.00;94530.84;10399695;28;19920;-76
2021/11/21 20:58:41;;;;;;;;;;;;;;;3.34;100.00;94544.13;10400996;28;19921;-78
2021/11/21 21:03:41;;;;;;;;;;;;;;;3.18;100.00;94547.47;10400626;28;20531;-76
2021/11/21 21:08:41;;;;;;;;;;;;;;;3.18;100.00;94548.28;10398912;28;20462;-77
2021/11/21 21:13:43;;;;;;;;;;;;;;;3.08;100.00;94553.34;10398616;28;19917;-82
2021/11/21 21:18:44;;;;;;;;;;;;;;;2.96;100.00;94558.66;10400243;28;19913;-78
2021/11/21 21:23:45;;;;;;;;;;;;;;;2.97;100.00;94554.97;10398232;28;20441;-75
2021/11/21 21:28:45;;;;;;;;;;;;;;;2.86;100.00;94551.28;10399134;28;19917;-78
2021/11/21 21:33:45;;;;;;;;;;;;;;;2.95;100.00;94550.94;10401939;28;20310;-81
2021/11/21 21:38:46;;;;;;;;;;;;;;;2.95;100.00;94546.44;10404900;28;20482;-74
2021/11/21 21:43:47;;;;;;;;;;;;;;;2.84;100.00;94548.03;10405775;28;19917;-74
2021/11/21 21:48:47;;;;;;;;;;;;;;;2.85;100.00;94546.19;10408344;28;19928;-75
2021/11/21 21:53:47;;;;;;;;;;;;;;;2.84;100.00;94548.03;10406358;28;20320;-79
2021/11/21 21:58:48;;;;;;;;;;;;;;;2.84;100.00;94549.88;10406642;28;19995;-73
2021/11/21 22:03:49;;;;;;;;;;;;;;;2.77;100.00;94555.28;10406322;28;20475;-76
2021/11/21 22:08:50;;;;;;;;;;;;;;;2.75;100.00;94549.41;10406217;28;19925;-74
2021/11/21 22:13:51;;;;;;;;;;;;;;;2.62;100.00;94557.56;10389343;28;20342;-77
2021/11/21 22:18:52;;;;;;;;;;;;;;;2.48;100.00;94555.09;10423375;28;19956;-74
2021/11/21 22:23:52;;;;;;;;;;;;;;;2.60;100.00;94549.84;10405802;28;19920;-74
2021/11/21 22:28:53;;;;;;;;;;;;;;;2.54;100.00;94551.56;10405546;28;20413;-79
2021/11/21 22:33:53;;;;;;;;;;;;;;;2.54;100.00;94550.75;10406805;28;19920;-77
2021/11/21 22:38:53;;;;;;;;;;;;;;;2.50;100.00;94547.75;10422014;28;19917;-75
2021/11/21 22:43:54;;;;;;;;;;;;;;;2.61;100.00;94551.47;10404183;28;20011;-72
2021/11/21 22:48:54;;;;;;;;;;;;;;;2.71;100.00;94556.22;10422051;28;19920;-78
2021/11/21 22:53:54;;;;;;;;;;;;;;;2.65;100.00;94551.81;10405109;28;20303;-78
2021/11/21 22:58:55;;;;;;;;;;;;;;;2.63;100.00;94549.38;10421154;28;20328;-75
2021/11/21 23:03:55;;;;;;;;;;;;;;;2.75;100.00;94549.41;10404827;28;20402;-75
2021/11/21 23:08:57;;;;;;;;;;;;;;;2.72;100.00;94545.38;10404421;28;19971;-73
2021/11/21 23:13:57;;;;;;;;;;;;;;;2.71;100.00;94551.72;10405238;28;20326;-75
2021/11/21 23:19:00;;;;;;;;;;;;;;;2.60;100.00;94549.03;10403398;28;19924;-78
2021/11/21 23:24:00;;;;;;;;;;;;;;;2.65;100.00;94536.72;10403555;28;19998;-76
2021/11/21 23:29:01;;;;;;;;;;;;;;;2.61;100.00;94555.94;10404351;28;20556;-76
2021/11/21 23:34:01;;;;;;;;;;;;;;;2.53;100.00;94544.63;10420598;28;19920;-76
2021/11/21 23:39:02;;;;;;;;;;;;;;;2.44;100.00;94553.16;10403027;28;19920;-74
2021/11/21 23:44:03;;;;;;;;;;;;;;;2.30;100.00;94549.88;10402456;28;20387;-74
2021/11/21 23:49:08;;;;;;;;;;;;;;;2.14;100.00;94551.34;10403956;28;19924;-74
2021/11/21 23:54:08;;;;;;;;;;;;;;;2.10;100.00;94550.97;10403712;28;20059;-77
2021/11/21 23:59:09;;;;;;;;;;;;;;;1.97;100.00;94553.81;10384527;28;20398;-76
